Aérodrome :
LOGIN :

S'inscrire | Disclaimer

   EN    FR    IT 

 










Légende :    VFR   VFR Marginal   IFR   IFR Intensif   IFR Très Intensif
Visi : 
Plafond : 
>= 8 km
>= 3000ft
5 à 8 km
1000 à 3000 ft
1500m à 5 km
500 à 1000 ft
800 à 1500m
200 à 500 ft
< 800m
< 200 ft
Symboles :   Orages  Brouillard  Fortes neiges  Fortes précipitations  Vent > 20 kt
SIGMETs :   Divers  Orages  Givrage  Turbulence  Onde Orograph.  Cendres Volcan.







- Altitude de l'aérodrome : 3368 ft


LSGC - Les Eplatures

DERNIER METAR :
  • 211520Z VRB02KT 9999 FEW030 SCT090 16/14 Q1017

METARs EXPIRÉS :
  • 211450Z 21003KT 170V250 9999 FEW030 OVC090 15/13 Q1017
  • 211420Z VRB02KT 9999 FEW042 SCT050 OVC070 15/13 Q1017 REDZ
  • 211350Z 24004KT 170V290 9999 FEW012 BKN050 BKN070 15/13 Q1017
  • 211320Z 32004KT 240V040 9999 FEW011 BKN016 //////TCU 15/13 Q1017
  • 211250Z 21005KT 160V260 9999 SCT015 SCT020 17/13 Q1017

TAF TAF LSGC
Valide du 21 à 15h jusqu'au 22 à 00h UTC


211425Z 2115/2124 VRB04KT 9999 FEW015 SCT050 BKN070
PROB40
TEMPO 2115/2121 4900 SHRA BKN020TCU
Pas de NOTAMs connus pour ce terrain.



MET'MAP, la Météo Aéronautique d'un coup d'oeil ! - Copyright ORBIFLY Décembre 2007 - Disclaimer

ORBIFLY MET'MAP TEAM :

Programmation & Développement : Alexandra Zaïnal
Conception & Développement : Baudouin d'Aumeries
Co-Programmation & Développement : Marc-Olivier Méhu
Soutien technique & logistique : Manuel Goepfert

Contact : metmap@orbifly.com




SOURCES & CREDITS :

   NOAA